Time;durP1;ratioP1;P1;durP2;ratioP2;P2;SDS_P1;SDS_P2;PMS_P1;PMS_P2;Temp;Humidity;BMP_temperature;BMP_pressure;BME280_temperature;BME280_humidity;BME280_pressure;Samples;Min_cycle;Max_cycle;Signal;HPM_P1;HPM_P2
2023/01/16 00:02:08;;;;;;;4.55;2.25;;;5.50;99.90;;;;;;4914963;29;20059;-75
2023/01/16 00:04:35;;;;;;;4.38;2.17;;;5.50;99.90;;;;;;4923806;29;20047;-75
2023/01/16 00:07:00;;;;;;;5.22;2.30;;;5.60;99.90;;;;;;4924899;29;20443;-75
2023/01/16 00:09:26;;;;;;;4.60;1.80;;;5.60;99.90;;;;;;4943639;29;20495;-76
2023/01/16 00:11:52;;;;;;;4.00;2.08;;;5.60;99.90;;;;;;4904987;29;20116;-75
2023/01/16 00:14:18;;;;;;;9.45;3.03;;;5.60;99.90;;;;;;4898859;29;20039;-76
2023/01/16 00:16:43;;;;;;;6.25;2.45;;;5.60;99.90;;;;;;4914248;29;20735;-75
2023/01/16 00:19:09;;;;;;;5.65;2.42;;;5.60;99.90;;;;;;4936599;29;20039;-75
2023/01/16 00:21:35;;;;;;;9.75;3.10;;;5.70;99.90;;;;;;4914358;29;20048;-75
2023/01/16 00:24:01;;;;;;;10.95;3.33;;;5.70;99.90;;;;;;4915001;29;20047;-75
2023/01/16 00:26:27;;;;;;;4.97;2.50;;;5.70;99.90;;;;;;4924930;29;20785;-75
2023/01/16 00:28:53;;;;;;;7.25;2.65;;;5.70;99.90;;;;;;4929179;29;20066;-75
2023/01/16 00:31:19;;;;;;;7.68;3.08;;;5.70;99.90;;;;;;4914582;29;20047;-75
2023/01/16 00:33:44;;;;;;;12.57;3.10;;;5.70;99.90;;;;;;4913384;29;20130;-75
2023/01/16 00:36:11;;;;;;;7.40;2.10;;;5.70;99.90;;;;;;4923573;29;20469;-76
2023/01/16 00:38:37;;;;;;;6.90;2.08;;;5.60;99.90;;;;;;4910198;29;20119;-75
2023/01/16 00:41:03;;;;;;;8.02;2.33;;;5.60;99.90;;;;;;4891702;29;20463;-75
2023/01/16 00:43:29;;;;;;;7.20;2.35;;;5.60;99.90;;;;;;4929057;29;20048;-75
2023/01/16 00:45:56;;;;;;;6.80;2.10;;;5.60;99.90;;;;;;4936937;29;20039;-76
2023/01/16 00:48:22;;;;;;;5.70;1.95;;;5.50;99.90;;;;;;4903773;29;20051;-75
2023/01/16 00:50:48;;;;;;;7.32;1.55;;;5.50;99.90;;;;;;4923796;29;20367;-76
2023/01/16 00:53:14;;;;;;;6.82;1.70;;;5.50;99.90;;;;;;4904053;29;20043;-76
2023/01/16 00:55:41;;;;;;;7.72;1.67;;;5.60;99.90;;;;;;4914302;29;20047;-75
2023/01/16 00:58:10;;;;;;;5.38;1.13;;;5.50;99.90;;;;;;4936338;29;20047;-76
2023/01/16 01:00:37;;;;;;;3.85;1.20;;;5.50;99.90;;;;;;4923049;29;20043;-75
2023/01/16 01:03:04;;;;;;;4.83;1.00;;;5.50;99.90;;;;;;4904855;29;20054;-76
2023/01/16 01:05:37;;;;;;;4.88;1.00;;;5.40;99.90;;;;;;4920433;29;20303;-75
2023/01/16 01:08:03;;;;;;;5.63;1.27;;;5.50;99.90;;;;;;4916029;29;20692;-76
2023/01/16 01:10:44;;;;;;;5.43;1.27;;;5.50;99.90;;;;;;4932659;29;20052;-75
2023/01/16 01:13:12;;;;;;;2.53;1.00;;;5.40;99.90;;;;;;4908676;29;20083;-75
2023/01/16 01:15:38;;;;;;;4.28;1.02;;;5.40;99.90;;;;;;4909103;29;20060;-76
2023/01/16 01:18:04;;;;;;;6.82;1.30;;;5.40;99.90;;;;;;4915551;29;20052;-75
2023/01/16 01:20:30;;;;;;;4.85;0.90;;;5.40;99.90;;;;;;4932802;29;20058;-76
2023/01/16 01:22:57;;;;;;;3.33;1.20;;;5.40;99.90;;;;;;4895347;29;20074;-76
2023/01/16 01:25:23;;;;;;;3.88;1.10;;;5.30;99.90;;;;;;4923232;29;20461;-76
2023/01/16 01:27:49;;;;;;;8.23;2.35;;;5.40;99.90;;;;;;4900310;29;20058;-76
2023/01/16 01:30:15;;;;;;;4.60;1.05;;;5.30;99.90;;;;;;4919158;29;20056;-76
2023/01/16 01:32:40;;;;;;;2.65;0.82;;;5.30;99.90;;;;;;4915464;29;20048;-76
2023/01/16 01:35:06;;;;;;;5.30;0.95;;;5.40;99.90;;;;;;4913529;29;20363;-74
2023/01/16 01:37:33;;;;;;;4.80;1.10;;;5.40;99.90;;;;;;4901808;29;20150;-74
2023/01/16 01:39:59;;;;;;;2.55;0.80;;;5.30;99.90;;;;;;4917732;29;20050;-73
2023/01/16 01:42:43;;;;;;;5.53;1.00;;;5.40;99.90;;;;;;4930138;29;20043;-73
2023/01/16 01:45:16;;;;;;;4.45;1.38;;;5.40;99.90;;;;;;4922140;29;20125;-73
2023/01/16 01:47:44;;;;;;;4.70;0.98;;;5.30;99.90;;;;;;4916020;29;20054;-73
2023/01/16 01:50:48;;;;;;;7.72;1.08;;;5.40;99.90;;;;;;4892439;29;20704;-73
2023/01/16 01:53:22;;;;;;;6.55;0.98;;;5.40;99.90;;;;;;4932182;29;20469;-73
2023/01/16 01:55:48;;;;;;;3.42;0.90;;;5.40;99.90;;;;;;4895681;29;20055;-73
2023/01/16 01:58:18;;;;;;;5.82;1.38;;;5.40;99.90;;;;;;4912523;29;20052;-73
2023/01/16 02:00:44;;;;;;;6.82;1.30;;;5.40;99.90;;;;;;4898783;29;20058;-74
2023/01/16 02:03:12;;;;;;;3.72;1.20;;;5.50;99.90;;;;;;4918376;29;20048;-73
2023/01/16 02:05:44;;;;;;;5.32;1.40;;;5.50;99.90;;;;;;4919064;29;20075;-73
2023/01/16 02:08:14;;;;;;;5.40;1.30;;;5.50;99.90;;;;;;4919392;29;20043;-73
2023/01/16 02:10:42;;;;;;;2.92;0.85;;;5.50;99.90;;;;;;4914551;29;20105;-73
2023/01/16 02:13:08;;;;;;;;;;;5.50;99.90;;;;;;4908589;29;20058;-73
2023/01/16 02:15:34;;;;;;;3.72;1.27;;;5.50;99.90;;;;;;4929899;29;19919;-73
2023/01/16 02:21:20;;;;;;;4.80;1.02;;;5.50;99.90;;;;;;4916050;29;20048;-74
2023/01/16 02:24:10;;;;;;;5.10;1.15;;;5.50;99.90;;;;;;4917045;29;20178;-73
2023/01/16 02:27:15;;;;;;;7.03;1.20;;;5.50;99.90;;;;;;4931707;29;20051;-74
2023/01/16 02:30:09;;;;;;;4.55;1.20;;;5.60;99.90;;;;;;4935471;29;20063;-73
2023/01/16 02:32:56;;;;;;;5.55;0.90;;;5.50;99.90;;;;;;4924571;29;20119;-74
2023/01/16 02:35:41;;;;;;;4.25;0.90;;;5.50;99.90;;;;;;4906975;29;20075;-74
2023/01/16 02:38:32;;;;;;;4.93;1.10;;;5.60;99.90;;;;;;4923270;29;20063;-74
2023/01/16 02:41:10;;;;;;;5.55;1.10;;;5.60;99.90;;;;;;4917038;29;20150;-73
2023/01/16 02:43:41;;;;;;;2.72;0.95;;;5.50;99.90;;;;;;4903414;29;20044;-73
2023/01/16 02:46:19;;;;;;;3.60;0.95;;;5.60;99.90;;;;;;4911839;29;20052;-73
2023/01/16 02:48:53;;;;;;;2.15;0.77;;;5.50;99.90;;;;;;4912495;29;20119;-74
2023/01/16 02:52:03;;;;;;;3.90;0.90;;;5.50;99.90;;;;;;4920809;29;20676;-73
2023/01/16 02:54:35;;;;;;;5.82;1.00;;;5.50;99.90;;;;;;4915754;29;20055;-74
2023/01/16 02:57:14;;;;;;;2.85;0.88;;;5.50;99.90;;;;;;4896143;29;20060;-73
2023/01/16 02:59:40;;;;;;;;;;;5.50;99.90;;;;;;4917988;29;20047;-74
2023/01/16 03:02:05;;;;;;;4.63;1.33;;;5.50;99.90;;;;;;4945924;28;19941;-73
2023/01/16 03:04:48;;;;;;;7.60;0.90;;;5.50;99.90;;;;;;4899394;29;20107;-73
2023/01/16 03:07:35;;;;;;;4.15;1.00;;;5.40;99.90;;;;;;4893951;29;20068;-74
2023/01/16 03:10:32;;;;;;;5.45;0.82;;;5.40;99.90;;;;;;4943509;28;20461;-73
2023/01/16 03:13:23;;;;;;;4.50;0.95;;;5.40;99.90;;;;;;4930340;29;20055;-73
2023/01/16 03:16:01;;;;;;;3.85;1.00;;;5.40;99.90;;;;;;4924316;29;20461;-73
2023/01/16 03:19:00;;;;;;;4.05;0.80;;;5.30;99.90;;;;;;4918839;29;20047;-73
2023/01/16 03:21:44;;;;;;;5.82;1.00;;;5.30;99.90;;;;;;4919108;29;20078;-74
2023/01/16 03:24:32;;;;;;;4.43;0.80;;;5.30;99.90;;;;;;4937532;29;20078;-74
2023/01/16 03:27:08;;;;;;;;;;;5.20;99.90;;;;;;4940364;29;20077;-74
2023/01/16 03:29:40;;;;;;;5.50;1.45;;;5.30;99.90;;;;;;4921680;29;19923;-74
2023/01/16 03:32:06;;;;;;;4.72;1.00;;;5.20;99.90;;;;;;4937580;29;20339;-74
2023/01/16 03:34:53;;;;;;;2.85;0.70;;;5.10;99.90;;;;;;4932130;29;20824;-74
2023/01/16 03:37:28;;;;;;;4.10;0.77;;;5.20;99.90;;;;;;4937045;29;20058;-73
2023/01/16 03:39:59;;;;;;;4.28;0.75;;;5.20;99.90;;;;;;4906591;29;20492;-74
2023/01/16 03:42:33;;;;;;;1.10;0.40;;;5.20;99.90;;;;;;4904187;29;20508;-73
2023/01/16 03:45:02;;;;;;;2.72;0.77;;;5.20;99.90;;;;;;4907736;29;20043;-74
2023/01/16 03:47:31;;;;;;;2.67;0.63;;;5.20;99.90;;;;;;4916927;29;20048;-74
2023/01/16 03:49:59;;;;;;;3.05;0.70;;;5.20;99.90;;;;;;4908243;29;20075;-74
2023/01/16 03:52:30;;;;;;;2.03;0.88;;;5.20;99.90;;;;;;4904691;29;20123;-74
2023/01/16 03:55:06;;;;;;;3.70;0.70;;;5.20;99.90;;;;;;4905345;29;20062;-74
2023/01/16 03:57:37;;;;;;;4.38;1.00;;;5.20;99.90;;;;;;4930605;29;20059;-74
2023/01/16 04:00:03;;;;;;;2.30;0.68;;;5.20;99.90;;;;;;4921214;29;20043;-74
2023/01/16 04:02:46;;;;;;;2.90;0.73;;;5.20;99.90;;;;;;4905276;29;20130;-74
2023/01/16 04:05:18;;;;;;;4.65;0.90;;;5.10;99.90;;;;;;4919437;29;20044;-74
2023/01/16 04:07:46;;;;;;;2.55;0.90;;;5.10;99.90;;;;;;4914035;29;20059;-74
2023/01/16 04:10:14;;;;;;;2.58;0.75;;;5.10;99.90;;;;;;4922249;29;20119;-74
2023/01/16 04:12:52;;;;;;;5.00;1.10;;;5.10;99.90;;;;;;4903991;29;20055;-74
2023/01/16 04:15:18;;;;;;;4.90;1.00;;;5.00;99.90;;;;;;4914518;29;20126;-74
2023/01/16 04:17:44;;;;;;;4.55;0.77;;;5.00;99.90;;;;;;4924984;29;20413;-74
2023/01/16 04:20:10;;;;;;;4.22;0.82;;;5.00;99.90;;;;;;4917650;29;20050;-74
2023/01/16 04:22:36;;;;;;;2.80;0.80;;;5.00;99.90;;;;;;4916076;29;20385;-73
2023/01/16 04:25:04;;;;;;;3.40;0.82;;;5.00;99.90;;;;;;4933388;29;20095;-74
2023/01/16 04:27:29;;;;;;;2.35;0.63;;;5.00;99.90;;;;;;4895358;29;20083;-74
2023/01/16 04:29:55;;;;;;;3.17;0.80;;;4.90;99.90;;;;;;4911289;29;20818;-74
2023/01/16 04:32:21;;;;;;;3.83;0.70;;;4.90;99.90;;;;;;4914576;29;20126;-74
2023/01/16 04:34:47;;;;;;;3.53;0.70;;;4.90;99.90;;;;;;4911107;29;20082;-74
2023/01/16 04:37:14;;;;;;;3.97;0.88;;;4.90;99.90;;;;;;4887961;29;20523;-74
2023/01/16 04:39:40;;;;;;;3.13;0.90;;;4.80;99.90;;;;;;4897323;29;20044;-74
2023/01/16 04:42:09;;;;;;;1.90;0.70;;;4.90;99.90;;;;;;4903634;29;20131;-74
2023/01/16 04:44:35;;;;;;;4.43;1.00;;;4.80;99.90;;;;;;4919963;29;20043;-74
2023/01/16 04:47:01;;;;;;;1.98;0.80;;;4.80;99.90;;;;;;4935891;29;20158;-74
2023/01/16 04:49:27;;;;;;;3.75;0.80;;;4.80;99.90;;;;;;4892394;29;20109;-74
2023/01/16 04:51:52;;;;;;;2.92;0.93;;;4.80;99.90;;;;;;4919706;29;20058;-74
2023/01/16 04:54:18;;;;;;;8.00;1.55;;;4.80;99.90;;;;;;4911868;29;20051;-74
2023/01/16 04:56:44;;;;;;;3.53;0.98;;;4.70;99.90;;;;;;4908416;29;20043;-74
2023/01/16 04:59:10;;;;;;;7.40;1.05;;;4.70;99.90;;;;;;4917601;29;20488;-74
2023/01/16 05:01:37;;;;;;;2.28;0.90;;;4.70;99.90;;;;;;4913329;29;20044;-74
2023/01/16 05:04:07;;;;;;;4.75;1.05;;;4.80;99.90;;;;;;4904714;29;20139;-74
2023/01/16 05:06:33;;;;;;;2.58;0.65;;;4.70;99.90;;;;;;4920246;29;20040;-74
2023/01/16 05:08:59;;;;;;;3.70;0.90;;;4.70;99.90;;;;;;4919187;29;20044;-74
2023/01/16 05:11:25;;;;;;;4.47;0.90;;;4.70;99.90;;;;;;4913463;29;20058;-74
2023/01/16 05:13:50;;;;;;;3.60;1.02;;;4.70;99.90;;;;;;4938442;29;20377;-74
2023/01/16 05:16:16;;;;;;;4.88;1.00;;;4.70;99.90;;;;;;4944486;28;20048;-74
2023/01/16 05:18:43;;;;;;;5.47;1.17;;;4.70;99.90;;;;;;4907238;29;20773;-74
2023/01/16 05:21:09;;;;;;;3.17;0.95;;;4.70;99.90;;;;;;4918684;29;20130;-74
2023/01/16 05:23:36;;;;;;;3.58;1.23;;;4.60;99.90;;;;;;4935617;29;20074;-74
2023/01/16 05:26:06;;;;;;;1.83;0.60;;;4.60;99.90;;;;;;4890942;29;20044;-74
2023/01/16 05:28:32;;;;;;;1.73;0.70;;;4.60;99.90;;;;;;4928436;29;20064;-74
2023/01/16 05:30:58;;;;;;;4.47;1.20;;;4.50;99.90;;;;;;4931099;29;20128;-74
2023/01/16 05:33:24;;;;;;;4.47;1.00;;;4.60;99.90;;;;;;4933217;29;20646;-74
2023/01/16 05:35:50;;;;;;;3.05;0.77;;;4.70;99.90;;;;;;4922276;29;20466;-74
2023/01/16 05:38:16;;;;;;;4.20;1.05;;;4.70;99.90;;;;;;4913266;29;20055;-74
2023/01/16 05:40:43;;;;;;;3.50;0.93;;;4.70;99.90;;;;;;4926842;29;20448;-74
2023/01/16 05:43:09;;;;;;;7.40;1.15;;;4.70;99.90;;;;;;4896843;29;20073;-73
2023/01/16 05:45:35;;;;;;;5.60;1.48;;;4.70;99.90;;;;;;4896304;29;20520;-74
2023/01/16 05:48:00;;;;;;;3.58;1.05;;;4.70;99.90;;;;;;4918668;29;20062;-74
2023/01/16 05:50:26;;;;;;;3.60;0.80;;;4.60;99.90;;;;;;4903088;29;20172;-74
2023/01/16 05:52:52;;;;;;;2.38;1.15;;;4.60;99.90;;;;;;4904692;29;20103;-74
2023/01/16 05:55:18;;;;;;;2.90;0.88;;;4.60;99.90;;;;;;4915794;29;20428;-74
2023/01/16 05:57:44;;;;;;;3.50;1.10;;;4.60;99.90;;;;;;4912132;29;20087;-74
2023/01/16 06:00:10;;;;;;;6.20;1.00;;;4.50;99.90;;;;;;4932265;29;20043;-74
2023/01/16 06:02:36;;;;;;;6.07;1.13;;;4.60;99.90;;;;;;4908610;29;20062;-74
2023/01/16 06:05:01;;;;;;;5.40;0.98;;;4.50;99.90;;;;;;4918560;29;20044;-74
2023/01/16 06:07:27;;;;;;;1.75;0.75;;;4.60;99.90;;;;;;4918653;29;20043;-74
2023/01/16 06:09:53;;;;;;;3.00;0.98;;;4.60;99.90;;;;;;4912820;29;20107;-74
2023/01/16 06:12:19;;;;;;;4.22;1.00;;;4.60;99.90;;;;;;4907116;29;20388;-74
2023/01/16 06:14:48;;;;;;;3.10;1.25;;;4.70;99.90;;;;;;4915137;29;20059;-74
2023/01/16 06:17:14;;;;;;;2.40;0.98;;;4.70;99.90;;;;;;4917547;29;20048;-75
2023/01/16 06:19:40;;;;;;;4.57;1.00;;;4.70;99.90;;;;;;4914715;29;20118;-74
2023/01/16 06:22:06;;;;;;;3.38;0.82;;;4.80;99.90;;;;;;4912161;29;20048;-76
2023/01/16 06:24:32;;;;;;;3.13;1.30;;;4.90;99.90;;;;;;4901319;29;20047;-76
2023/01/16 06:26:58;;;;;;;4.18;1.35;;;5.00;99.90;;;;;;4919543;29;20389;-77
2023/01/16 06:29:23;;;;;;;3.25;1.02;;;5.00;99.90;;;;;;4928445;29;20083;-77
2023/01/16 06:31:49;;;;;;;1.40;0.60;;;5.00;99.90;;;;;;4925488;29;20044;-76
2023/01/16 06:34:15;;;;;;;5.15;1.08;;;5.00;99.90;;;;;;4906564;29;20052;-76
2023/01/16 06:36:41;;;;;;;2.40;0.65;;;5.00;99.90;;;;;;4921453;29;20508;-76
2023/01/16 06:39:08;;;;;;;2.33;1.00;;;5.00;99.90;;;;;;4912268;29;20396;-76
2023/01/16 06:41:33;;;;;;;3.53;1.10;;;5.00;99.90;;;;;;4897603;29;20647;-76
2023/01/16 06:43:59;;;;;;;2.42;0.70;;;5.00;99.90;;;;;;4903942;29;20047;-76
2023/01/16 06:46:25;;;;;;;3.97;0.98;;;4.90;99.90;;;;;;4915365;29;20350;-76
2023/01/16 06:48:50;;;;;;;4.70;1.00;;;4.70;99.90;;;;;;4907364;29;20048;-76
2023/01/16 06:51:16;;;;;;;4.38;0.90;;;4.70;99.90;;;;;;4929808;29;20059;-76
2023/01/16 06:53:45;;;;;;;4.50;1.10;;;4.60;99.90;;;;;;4920685;29;20047;-76
2023/01/16 06:56:11;;;;;;;4.18;1.10;;;4.50;99.90;;;;;;4908929;29;20059;-76
2023/01/16 06:58:37;;;;;;;2.90;1.05;;;4.50;99.90;;;;;;4900656;29;20048;-76
2023/01/16 07:01:03;;;;;;;2.65;0.80;;;4.50;99.90;;;;;;4919417;29;20043;-76
2023/01/16 07:03:28;;;;;;;3.70;0.90;;;4.40;99.90;;;;;;4919240;29;20445;-76
2023/01/16 07:05:54;;;;;;;4.70;1.02;;;4.40;99.90;;;;;;4925700;29;20079;-76
2023/01/16 07:08:20;;;;;;;4.45;0.98;;;4.30;99.90;;;;;;4918244;29;20111;-76
2023/01/16 07:10:45;;;;;;;3.42;0.90;;;4.30;99.90;;;;;;4918878;29;20048;-76
2023/01/16 07:13:11;;;;;;;3.40;0.95;;;4.30;99.90;;;;;;4902592;29;20048;-76
2023/01/16 07:23:58;;;;;;;4.20;1.00;;;4.50;99.90;;;;;;4911017;29;20044;-76
2023/01/16 07:26:24;;;;;;;3.60;1.02;;;4.50;99.90;;;;;;4896453;29;20050;-76
2023/01/16 07:28:50;;;;;;;4.25;0.77;;;4.50;99.90;;;;;;4908117;29;20063;-76
2023/01/16 07:31:16;;;;;;;6.75;1.00;;;4.50;99.90;;;;;;4918481;29;20054;-76
2023/01/16 07:33:42;;;;;;;2.35;0.70;;;4.50;99.90;;;;;;4919154;29;20040;-76
2023/01/16 07:36:08;;;;;;;2.08;0.93;;;4.40;99.90;;;;;;4918813;29;20138;-76
2023/01/16 07:38:33;;;;;;;2.95;0.70;;;4.40;99.90;;;;;;4920457;29;20044;-76
2023/01/16 07:40:59;;;;;;;5.18;1.08;;;4.40;99.90;;;;;;4935490;29;20115;-75
2023/01/16 07:43:25;;;;;;;1.85;0.75;;;4.40;99.90;;;;;;4924002;29;20052;-76
2023/01/16 07:45:53;;;;;;;3.67;0.90;;;4.40;99.90;;;;;;4926241;29;20044;-76
2023/01/16 07:48:20;;;;;;;1.23;0.73;;;4.40;99.90;;;;;;4918469;29;20052;-76
2023/01/16 07:50:50;;;;;;;1.90;0.82;;;4.30;99.90;;;;;;4924955;29;20091;-76
2023/01/16 07:53:21;;;;;;;2.22;1.05;;;4.40;99.90;;;;;;4934169;29;20079;-76
2023/01/16 07:55:48;;;;;;;2.75;1.00;;;4.30;99.90;;;;;;4918509;29;20048;-76
2023/01/16 07:58:14;;;;;;;3.00;1.27;;;4.30;99.90;;;;;;4934866;29;20054;-76
2023/01/16 08:00:40;;;;;;;2.30;1.30;;;4.30;99.90;;;;;;4906855;29;20094;-76
2023/01/16 08:03:05;;;;;;;3.40;1.13;;;4.30;99.90;;;;;;4909707;29;20039;-76
2023/01/16 08:05:31;;;;;;;3.50;1.00;;;4.30;99.90;;;;;;4931204;29;20043;-76
2023/01/16 08:07:57;;;;;;;4.07;0.80;;;4.30;99.90;;;;;;4893758;29;20075;-76
2023/01/16 08:10:23;;;;;;;3.47;1.20;;;4.40;99.90;;;;;;4917981;29;20077;-76
2023/01/16 08:12:48;;;;;;;6.28;1.08;;;4.40;99.90;;;;;;4921661;29;20051;-76
2023/01/16 08:15:14;;;;;;;3.70;1.05;;;4.50;99.90;;;;;;4922074;29;20040;-75
2023/01/16 08:17:41;;;;;;;4.05;1.00;;;4.50;99.90;;;;;;4915680;29;20076;-76
2023/01/16 08:20:07;;;;;;;4.63;1.38;;;4.60;99.90;;;;;;4936359;29;20040;-76
2023/01/16 08:22:33;;;;;;;2.95;1.20;;;4.60;99.90;;;;;;4930148;29;20047;-76
2023/01/16 08:24:59;;;;;;;4.35;1.20;;;4.60;99.90;;;;;;4925066;29;20130;-76
2023/01/16 08:27:25;;;;;;;3.58;1.00;;;4.60;99.90;;;;;;4925763;29;20811;-75
2023/01/16 08:29:50;;;;;;;4.25;1.17;;;4.70;99.90;;;;;;4911813;29;20086;-76
2023/01/16 08:32:16;;;;;;;4.63;1.38;;;4.80;99.90;;;;;;4913237;29;20058;-76
2023/01/16 08:34:42;;;;;;;4.75;1.35;;;4.80;99.90;;;;;;4915263;29;20099;-75
2023/01/16 08:37:10;;;;;;;4.20;1.05;;;4.80;99.90;;;;;;4916792;29;20062;-75
2023/01/16 08:39:36;;;;;;;4.13;1.20;;;4.90;99.90;;;;;;4928556;29;20044;-76
2023/01/16 08:53:03;;;;;;;4.88;1.17;;;5.00;99.90;;;;;;4917067;29;20150;-76
2023/01/16 08:55:29;;;;;;;4.55;1.25;;;5.10;99.90;;;;;;4912168;29;20107;-75
2023/01/16 08:57:56;;;;;;;6.28;1.10;;;5.10;99.90;;;;;;4930663;29;20182;-76
2023/01/16 09:00:22;;;;;;;2.63;0.90;;;5.10;99.90;;;;;;4915444;29;20043;-76
2023/01/16 09:02:48;;;;;;;3.53;0.90;;;5.20;99.90;;;;;;4914822;29;20048;-76
2023/01/16 09:05:14;;;;;;;2.72;1.05;;;5.20;99.90;;;;;;4933805;29;20040;-76
2023/01/16 09:07:40;;;;;;;2.97;1.00;;;5.30;99.90;;;;;;4915487;29;20044;-76
2023/01/16 09:10:06;;;;;;;3.67;1.02;;;5.30;99.90;;;;;;4922873;29;20102;-76
2023/01/16 09:15:16;;;;;;;6.88;1.60;;;5.50;99.90;;;;;;4931387;29;20130;-76
2023/01/16 09:17:42;;;;;;;5.07;1.20;;;5.40;99.90;;;;;;4933529;29;20183;-76
2023/01/16 09:20:09;;;;;;;5.00;1.05;;;5.50;99.90;;;;;;4892790;29;20257;-76
2023/01/16 09:22:35;;;;;;;5.68;1.13;;;5.50;99.90;;;;;;4935660;29;20043;-76
2023/01/16 09:25:00;;;;;;;4.10;1.20;;;5.60;99.90;;;;;;4913914;29;20609;-75
2023/01/16 09:27:26;;;;;;;3.85;0.98;;;5.60;99.90;;;;;;4923223;29;20122;-76
2023/01/16 09:29:54;;;;;;;5.88;1.05;;;5.70;99.90;;;;;;4920536;29;20497;-76
2023/01/16 09:32:20;;;;;;;3.85;0.90;;;5.80;99.90;;;;;;4934427;29;20079;-76
2023/01/16 09:34:46;;;;;;;3.45;0.90;;;5.80;99.90;;;;;;4919895;29;20742;-76
2023/01/16 09:37:11;;;;;;;4.30;0.82;;;5.70;99.90;;;;;;4935841;29;20110;-76
2023/01/16 09:39:37;;;;;;;5.03;0.98;;;5.80;99.90;;;;;;4933987;29;20155;-76
2023/01/16 09:45:09;;;;;;;2.78;0.90;;;5.60;99.90;;;;;;4926631;29;20367;-75
2023/01/16 09:47:36;;;;;;;3.83;0.90;;;5.60;99.90;;;;;;4903068;29;20485;-76
2023/01/16 09:50:18;;;;;;;3.13;1.00;;;5.60;99.90;;;;;;4919851;29;20170;-76
2023/01/16 09:58:40;;;;;;;3.08;0.90;;;5.60;99.90;;;;;;4919890;29;20056;-74
2023/01/16 10:01:12;;;;;;;3.00;1.10;;;5.60;99.90;;;;;;4900695;29;20048;-73
2023/01/16 10:03:44;;;;;;;4.43;0.93;;;5.60;99.90;;;;;;4914823;29;20694;-73
2023/01/16 10:06:24;;;;;;;2.40;0.70;;;5.60;99.90;;;;;;4914309;29;20052;-73
2023/01/16 10:09:05;;;;;;;2.33;0.77;;;5.60;99.90;;;;;;4940579;29;20778;-73
2023/01/16 10:11:37;;;;;;;3.67;1.00;;;5.60;99.90;;;;;;4928944;29;20059;-73
2023/01/16 10:14:28;;;;;;;3.63;1.27;;;5.60;99.90;;;;;;4933720;29;20052;-74
2023/01/16 10:17:01;;;;;;;3.45;1.10;;;5.70;99.90;;;;;;4929095;29;20047;-74
2023/01/16 10:19:39;;;;;;;1.98;0.85;;;5.90;99.90;;;;;;4930455;29;20043;-74
2023/01/16 10:22:41;;;;;;;2.97;0.70;;;6.00;99.90;;;;;;4926315;29;20051;-73
2023/01/16 10:25:37;;;;;;;2.40;0.70;;;6.20;99.90;;;;;;4930118;29;20111;-74
2023/01/16 10:28:28;;;;;;;4.40;1.05;;;6.30;99.90;;;;;;4913232;29;20054;-75
2023/01/16 10:31:14;;;;;;;4.30;0.80;;;6.30;99.90;;;;;;4912690;29;20052;-75
2023/01/16 10:33:47;;;;;;;4.20;0.90;;;6.40;99.90;;;;;;4932279;29;20051;-75
2023/01/16 10:36:13;;;;;;;4.75;0.90;;;6.50;99.90;;;;;;4911665;29;20135;-75
2023/01/16 10:38:46;;;;;;;2.45;0.90;;;6.50;99.90;;;;;;4902695;29;20047;-75
2023/01/16 10:49:56;;;;;;;3.42;1.02;;;6.70;99.90;;;;;;4913242;29;20052;-74
2023/01/16 10:52:22;;;;;;;5.05;1.10;;;6.80;99.90;;;;;;4927135;29;20052;-74
2023/01/16 10:54:48;;;;;;;2.10;1.02;;;6.80;99.90;;;;;;4925223;29;20156;-75
2023/01/16 10:57:17;;;;;;;3.65;0.95;;;6.80;99.90;;;;;;4908424;29;20148;-74
2023/01/16 10:59:44;;;;;;;3.17;0.70;;;6.70;99.90;;;;;;4893181;29;20389;-74
2023/01/16 11:02:23;;;;;;;3.33;0.93;;;6.60;99.90;;;;;;4926378;29;20390;-75
2023/01/16 11:04:49;;;;;;;2.95;0.82;;;6.50;99.90;;;;;;4934019;29;20106;-74
2023/01/16 11:07:17;;;;;;;4.38;0.95;;;6.60;99.90;;;;;;4917707;29;20130;-75
2023/01/16 11:09:44;;;;;;;4.05;1.23;;;6.50;99.90;;;;;;4902612;29;20561;-76
2023/01/16 11:20:49;;;;;;;3.83;1.10;;;6.40;99.90;;;;;;4912353;29;20159;-75
2023/01/16 11:23:20;;;;;;;2.55;0.90;;;6.30;99.90;;;;;;4917842;29;20055;-74
2023/01/16 11:25:48;;;;;;;3.70;0.85;;;6.20;99.90;;;;;;4901959;29;20047;-74
2023/01/16 11:28:20;;;;;;;3.20;0.88;;;6.20;99.90;;;;;;4902652;29;20532;-74
2023/01/16 11:30:47;;;;;;;3.55;0.80;;;6.20;99.90;;;;;;4921028;29;20138;-75
2023/01/16 11:33:17;;;;;;;1.60;0.70;;;6.20;99.90;;;;;;4920412;29;20043;-75
2023/01/16 11:35:47;;;;;;;4.25;0.95;;;6.20;99.90;;;;;;4917918;29;20066;-75
2023/01/16 11:38:14;;;;;;;3.38;0.82;;;6.10;99.90;;;;;;4911023;29;20047;-75
2023/01/16 11:40:45;;;;;;;2.05;0.75;;;6.20;99.90;;;;;;4903092;29;20048;-76
2023/01/16 11:46:02;;;;;;;2.22;0.70;;;6.20;99.90;;;;;;4905715;29;20055;-74
2023/01/16 11:48:42;;;;;;;1.85;0.70;;;6.10;99.90;;;;;;4911488;29;20138;-75
2023/01/16 11:51:20;;;;;;;3.92;0.77;;;6.20;99.90;;;;;;4899950;29;20319;-75
2023/01/16 11:53:46;;;;;;;3.10;0.80;;;6.20;99.90;;;;;;4921474;29;20043;-75
2023/01/16 11:56:32;;;;;;;1.20;0.60;;;6.20;99.90;;;;;;4910913;29;20079;-75
2023/01/16 11:59:25;;;;;;;4.75;1.10;;;6.20;99.90;;;;;;4924975;29;20059;-75
2023/01/16 12:02:15;;;;;;;1.60;0.60;;;6.20;99.90;;;;;;4935285;29;20039;-74
2023/01/16 12:05:53;;;;;;;2.45;0.70;;;6.20;99.90;;;;;;4939639;29;20044;-75
2023/01/16 12:07:38;;;;;;;1.80;0.82;;;6.20;99.90;;;;;;4924917;29;20047;-75
2023/01/16 12:10:41;;;;;;;4.53;0.80;;;6.20;99.90;;;;;;4906685;29;20044;-75
2023/01/16 12:16:02;;;;;;;2.47;0.70;;;6.20;99.90;;;;;;4919727;29;20060;-74
2023/01/16 12:18:28;;;;;;;3.30;0.68;;;6.20;99.90;;;;;;4932220;29;20059;-75
2023/01/16 12:21:00;;;;;;;2.38;0.77;;;6.20;99.90;;;;;;4943699;28;20043;-74
2023/01/16 12:23:45;;;;;;;4.30;1.00;;;6.20;99.90;;;;;;4914975;29;20051;-74
2023/01/16 12:26:28;;;;;;;3.40;1.15;;;6.30;99.90;;;;;;4924195;29;20533;-74
2023/01/16 12:29:02;;;;;;;5.22;0.98;;;6.30;99.90;;;;;;4923990;29;20063;-75
2023/01/16 12:31:59;;;;;;;4.90;1.08;;;6.40;99.90;;;;;;4928782;29;20062;-75
2023/01/16 12:34:48;;;;;;;2.20;0.60;;;6.40;99.90;;;;;;4932859;29;20134;-75
2023/01/16 12:37:34;;;;;;;2.22;0.73;;;6.40;99.90;;;;;;4924398;29;20122;-75
2023/01/16 12:40:26;;;;;;;2.10;0.70;;;6.50;99.90;;;;;;4910528;29;20111;-74
2023/01/16 12:43:20;;;;;;;1.85;0.60;;;6.30;99.90;;;;;;4907877;29;20119;-74
2023/01/16 12:45:46;;;;;;;2.45;0.80;;;6.40;99.90;;;;;;4936317;29;20058;-74
2023/01/16 12:48:31;;;;;;;3.05;0.90;;;6.50;99.90;;;;;;4936224;29;20047;-75
2023/01/16 12:51:18;;;;;;;2.80;0.68;;;6.50;99.90;;;;;;4921057;29;20035;-75
2023/01/16 12:54:09;;;;;;;2.50;0.70;;;6.50;99.90;;;;;;4932815;29;20040;-74
2023/01/16 12:56:59;;;;;;;2.90;0.80;;;6.40;99.90;;;;;;4910849;29;20079;-74
2023/01/16 12:59:30;;;;;;;5.10;0.90;;;6.40;99.90;;;;;;4902670;29;20043;-74
2023/01/16 13:02:12;;;;;;;2.85;0.70;;;6.40;99.90;;;;;;4936298;29;20039;-76
2023/01/16 13:04:41;;;;;;;2.05;0.70;;;6.40;99.90;;;;;;4931143;29;20040;-74
2023/01/16 13:07:07;;;;;;;2.33;0.63;;;6.50;99.90;;;;;;4920354;29;20220;-76
2023/01/16 13:09:41;;;;;;;3.10;1.33;;;6.40;99.90;;;;;;4919838;29;20056;-75
2023/01/16 13:15:09;;;;;;;3.20;0.80;;;6.40;99.90;;;;;;4937180;29;20051;-75
2023/01/16 13:17:53;;;;;;;3.08;0.77;;;6.50;99.90;;;;;;4905000;29;20516;-76
2023/01/16 13:20:19;;;;;;;4.80;0.80;;;6.50;99.90;;;;;;4934799;29;20510;-76
2023/01/16 13:23:02;;;;;;;2.95;0.70;;;6.50;99.90;;;;;;4914847;29;20055;-76
2023/01/16 13:25:39;;;;;;;2.83;0.95;;;6.60;99.90;;;;;;4920736;29;20058;-76
2023/01/16 13:28:29;;;;;;;4.55;1.15;;;6.60;99.90;;;;;;4904557;29;20091;-76
2023/01/16 13:30:56;;;;;;;3.63;1.20;;;6.70;99.90;;;;;;4922249;29;20095;-76
2023/01/16 13:33:24;;;;;;;3.00;0.80;;;6.70;99.90;;;;;;4883284;29;20043;-77
2023/01/16 13:36:17;;;;;;;2.85;1.00;;;6.70;99.90;;;;;;4920301;29;20052;-76
2023/01/16 13:39:07;;;;;;;3.35;1.10;;;6.70;99.90;;;;;;4923998;29;20051;-76
2023/01/16 13:41:43;;;;;;;6.20;1.42;;;6.60;99.90;;;;;;4948216;29;20043;-76
2023/01/16 13:47:05;;;;;;;2.22;1.08;;;7.00;99.90;;;;;;4911551;29;20036;-77
2023/01/16 13:49:31;;;;;;;67.75;63.97;;;7.30;99.90;;;;;;4914348;29;20046;-77
2023/01/16 13:51:57;;;;;;;1999.90;999.90;;;7.60;99.90;;;;;;4927337;29;20130;-76
2023/01/16 13:54:37;;;;;;;7.22;4.57;;;8.20;99.90;;;;;;4919367;29;20047;-77
2023/01/16 13:57:13;;;;;;;3.88;1.45;;;7.90;99.90;;;;;;4920619;29;20150;-76
2023/01/16 13:59:49;;;;;;;4.07;1.85;;;7.50;99.90;;;;;;4915185;29;20055;-76
2023/01/16 14:02:40;;;;;;;2.85;1.00;;;7.40;99.90;;;;;;4937432;29;20043;-76
2023/01/16 14:05:43;;;;;;;4.82;1.00;;;7.20;99.90;;;;;;4921534;29;20090;-76
2023/01/16 14:09:06;;;;;;;2.63;0.85;;;6.90;99.90;;;;;;4931836;29;20052;-76
2023/01/16 14:12:12;;;;;;;2.38;0.98;;;6.90;99.90;;;;;;4934354;29;20075;-76
2023/01/16 14:17:30;;;;;;;1.33;0.70;;;6.80;99.90;;;;;;4935700;29;20571;-74
2023/01/16 14:20:04;;;;;;;2.10;0.80;;;6.70;99.90;;;;;;4894366;29;20059;-74
2023/01/16 14:25:07;;;;;;;3.20;0.90;;;6.60;99.90;;;;;;4922278;29;20052;-75
2023/01/16 14:27:37;;;;;;;3.60;1.27;;;6.50;99.90;;;;;;4900533;29;20043;-75
2023/01/16 14:30:35;;;;;;;2.47;1.00;;;6.50;99.90;;;;;;4917589;29;20078;-75